Time;durP1;ratioP1;P1;durP2;ratioP2;P2;SDS_P1;SDS_P2;PMS_P1;PMS_P2;Temp;Humidity;BMP_temperature;BMP_pressure;BME280_temperature;BME280_humidity;BME280_pressure;Samples;Min_cycle;Max_cycle;Signal;HPM_P1;HPM_P2
2022/01/20 00:00:14;;;;;;;;;;;;;;;1.35;100.00;96323.13;1034634;28;19909;-74
2022/01/20 00:01:38;;;;;;;;;;;;;;;1.34;100.00;96322.34;1039591;28;19920;-75
2022/01/20 00:02:08;;;;;;;;;;;;;;;1.34;100.00;96326.69;1038401;28;20394;-75
2022/01/20 00:02:39;;;;;;;;;;;;;;;1.34;100.00;96322.34;1034459;28;19914;-74
2022/01/20 00:03:14;;;;;;;;;;;;;;;1.36;100.00;96324.72;1030062;28;20315;-76
2022/01/20 00:03:44;;;;;;;;;;;;;;;1.35;100.00;96320.56;1030659;28;19910;-75
2022/01/20 00:04:20;;;;;;;;;;;;;;;1.36;100.00;96315.19;1029442;28;19914;-77
2022/01/20 00:05:08;;;;;;;;;;;;;;;1.34;100.00;96324.09;1031460;28;19906;-74
2022/01/20 00:06:47;;;;;;;;;;;;;;;1.34;100.00;96316.34;1033387;28;20477;-75
2022/01/20 00:07:13;;;;;;;;;;;;;;;1.34;100.00;96318.94;1027776;28;20371;-74
2022/01/20 00:07:31;;;;;;;;;;;;;;;1.36;100.00;96322.13;1034516;28;19913;-74
2022/01/20 00:09:39;;;;;;;;;;;;;;;1.36;100.00;96335.06;1034276;28;20000;-74
2022/01/20 00:26:14;;;;;;;;;;;;;;;1.35;100.00;96318.75;1035754;28;19922;-75
2022/01/20 00:26:46;;;;;;;;;;;;;;;1.35;100.00;96317.97;1033934;28;19917;-75
2022/01/20 00:27:18;;;;;;;;;;;;;;;1.36;100.00;96316.97;1034685;28;20012;-75
2022/01/20 00:27:53;;;;;;;;;;;;;;;1.34;100.00;96317.16;1030624;28;19924;-76
2022/01/20 00:28:39;;;;;;;;;;;;;;;1.34;100.00;96317.16;1030731;28;19918;-76
2022/01/20 00:29:19;;;;;;;;;;;;;;;1.35;100.00;96312.78;1031448;28;19918;-73
2022/01/20 00:30:35;;;;;;;;;;;;;;;1.34;100.00;96314.59;1042430;28;19912;-77
2022/01/20 00:31:28;;;;;;;;;;;;;;;1.35;100.00;96320.56;1040895;28;20028;-77
2022/01/20 00:32:09;;;;;;;;;;;;;;;1.12;100.00;96288.00;1025761;28;20383;-75
2022/01/20 00:33:13;;;;;;;;;;;;;;;1.34;100.00;96321.50;1027333;28;19941;-74
2022/01/20 00:33:52;;;;;;;;;;;;;;;1.37;100.00;96318.56;1028293;28;20633;-75
2022/01/20 00:34:32;;;;;;;;;;;;;;;1.15;100.00;96287.63;1033707;28;19920;-75
2022/01/20 00:37:15;;;;;;;;;;;;;;;1.34;100.00;96316.34;1034594;28;20056;-74
2022/01/20 00:37:23;;;;;;;;;;;;;;;1.37;100.00;96315.97;1039143;28;19913;-75
2022/01/20 00:37:53;;;;;;;;;;;;;;;1.36;100.00;96319.56;1030712;28;19910;-76
2022/01/20 00:38:23;;;;;;;;;;;;;;;1.35;100.00;96312.78;1034684;28;19937;-75
2022/01/20 00:38:54;;;;;;;;;;;;;;;1.35;100.00;96320.56;1031386;28;19936;-76
2022/01/20 00:39:24;;;;;;;;;;;;;;;1.34;100.00;96321.50;1031373;28;20036;-75
2022/01/20 00:39:55;;;;;;;;;;;;;;;1.38;100.00;96325.34;1027062;28;19953;-75
2022/01/20 00:40:25;;;;;;;;;;;;;;;1.37;100.00;96316.75;1023397;28;20414;-75
2022/01/20 00:40:55;;;;;;;;;;;;;;;1.37;100.00;96326.31;1023295;28;20487;-75
2022/01/20 00:41:26;;;;;;;;;;;;;;;1.35;100.00;96323.94;1027273;28;19946;-74
2022/01/20 00:41:56;;;;;;;;;;;;;;;1.36;100.00;96322.13;1031465;28;19968;-75
2022/01/20 00:42:26;;;;;;;;;;;;;;;1.36;100.00;96335.06;1027144;28;19906;-73
2022/01/20 00:42:56;;;;;;;;;;;;;;;1.38;100.00;96320.16;1030322;28;19918;-73
2022/01/20 00:43:27;;;;;;;;;;;;;;;1.36;100.00;96325.50;1027055;28;19914;-74
2022/01/20 00:43:57;;;;;;;;;;;;;;;1.39;100.00;96324.34;1023166;29;19921;-78
2022/01/20 00:44:27;;;;;;;;;;;;;;;1.37;100.00;96327.09;1030939;28;19969;-76
2022/01/20 00:44:58;;;;;;;;;;;;;;;1.37;100.00;96321.94;1027337;28;20485;-74
2022/01/20 00:45:28;;;;;;;;;;;;;;;1.37;100.00;96331.47;1030959;28;19913;-75
2022/01/20 00:45:58;;;;;;;;;;;;;;;1.36;100.00;96327.31;1022082;28;20336;-75
2022/01/20 00:46:29;;;;;;;;;;;;;;;1.36;100.00;96329.88;1030681;28;19946;-76
2022/01/20 00:46:59;;;;;;;;;;;;;;;1.36;100.00;96327.31;1034924;28;19910;-73
2022/01/20 00:47:29;;;;;;;;;;;;;;;1.36;100.00;96324.72;1030502;28;20664;-75
2022/01/20 00:47:59;;;;;;;;;;;;;;;1.35;100.00;96329.09;1030223;28;19917;-75
2022/01/20 00:48:30;;;;;;;;;;;;;;;1.35;100.00;96333.47;1038944;28;19913;-78
2022/01/20 00:49:00;;;;;;;;;;;;;;;1.38;100.00;96331.31;1034887;28;19959;-74
2022/01/20 00:49:30;;;;;;;;;;;;;;;1.37;100.00;96337.44;1036227;28;20535;-77
2022/01/20 00:50:01;;;;;;;;;;;;;;;1.39;100.00;96334.69;1030372;28;19954;-74
2022/01/20 00:50:31;;;;;;;;;;;;;;;1.40;100.00;96331.09;1025390;28;20000;-74
2022/01/20 00:51:03;;;;;;;;;;;;;;;1.39;100.00;96334.69;1026306;28;20005;-74
2022/01/20 00:51:33;;;;;;;;;;;;;;;1.40;100.00;96337.06;1026686;28;19966;-76
2022/01/20 00:52:03;;;;;;;;;;;;;;;1.40;100.00;96331.09;1030580;28;19926;-75
2022/01/20 00:52:34;;;;;;;;;;;;;;;1.40;100.00;96320.75;1031938;28;19906;-74
2022/01/20 00:53:04;;;;;;;;;;;;;;;1.38;100.00;96333.09;1030118;28;19932;-75
2022/01/20 00:53:34;;;;;;;;;;;;;;;1.37;100.00;96332.28;1026434;28;19929;-75
2022/01/20 00:54:05;;;;;;;;;;;;;;;1.39;100.00;96332.09;1030484;28;19930;-74
2022/01/20 00:54:35;;;;;;;;;;;;;;;1.37;100.00;96327.09;1030150;28;20493;-78
2022/01/20 00:55:06;;;;;;;;;;;;;;;1.37;100.00;96328.91;1030534;28;20636;-75
2022/01/20 00:55:37;;;;;;;;;;;;;;;1.37;100.00;96331.47;1036504;28;19921;-76
2022/01/20 00:56:07;;;;;;;;;;;;;;;1.36;100.00;96332.47;1038009;28;19916;-76
2022/01/20 00:56:37;;;;;;;;;;;;;;;1.39;100.00;96337.28;1034516;28;19916;-77
2022/01/20 00:57:08;;;;;;;;;;;;;;;1.36;100.00;96335.84;1034606;28;20475;-77
2022/01/20 00:57:38;;;;;;;;;;;;;;;1.37;100.00;96336.66;1030585;28;19964;-77
2022/01/20 00:58:08;;;;;;;;;;;;;;;1.39;100.00;96329.50;1026182;28;20498;-76
2022/01/20 00:58:39;;;;;;;;;;;;;;;1.40;100.00;96331.09;1026368;28;20291;-75
2022/01/20 00:59:09;;;;;;;;;;;;;;;1.39;100.00;96325.13;1026565;28;19910;-76
2022/01/20 00:59:39;;;;;;;;;;;;;;;1.28;100.00;96306.78;1028506;28;19917;-76
2022/01/20 01:00:10;;;;;;;;;;;;;;;1.38;100.00;96327.94;1026157;28;19910;-75
2022/01/20 01:00:41;;;;;;;;;;;;;;;1.37;100.00;96331.47;1030043;28;20288;-76
2022/01/20 01:01:11;;;;;;;;;;;;;;;1.39;100.00;96319.19;1030220;28;20239;-75
2022/01/20 01:01:41;;;;;;;;;;;;;;;1.40;100.00;96318.19;1034483;28;19905;-76
2022/01/20 01:02:12;;;;;;;;;;;;;;;1.39;100.00;96319.19;1030405;28;20081;-76
2022/01/20 01:02:42;;;;;;;;;;;;;;;1.37;100.00;96327.09;1030025;28;19926;-76
2022/01/20 01:03:12;;;;;;;;;;;;;;;1.40;100.00;96315.59;1029820;28;19937;-76
2022/01/20 01:03:43;;;;;;;;;;;;;;;1.18;100.00;96289.03;1026546;28;19914;-75
2022/01/20 01:04:13;;;;;;;;;;;;;;;1.43;100.00;96310.03;1026543;28;19942;-75
2022/01/20 01:04:43;;;;;;;;;;;;;;;1.44;100.00;96318.59;1022256;28;19918;-74
2022/01/20 01:05:13;;;;;;;;;;;;;;;1.43;100.00;96320.38;1018689;29;19915;-75
2022/01/20 01:06:05;;;;;;;;;;;;;;;1.41;100.00;96312.03;1025426;28;20272;-75
2022/01/20 01:07:05;;;;;;;;;;;;;;;1.42;100.00;96317.00;1028848;28;19918;-75
2022/01/20 01:07:51;;;;;;;;;;;;;;;1.42;100.00;96321.38;1032727;28;19918;-74
2022/01/20 01:08:22;;;;;;;;;;;;;;;1.40;100.00;96313.78;1027272;28;19938;-76
2022/01/20 01:08:52;;;;;;;;;;;;;;;1.42;100.00;96308.44;1036326;28;19905;-76
2022/01/20 01:09:22;;;;;;;;;;;;;;;1.41;100.00;96319.78;1030517;28;19932;-75
2022/01/20 01:09:53;;;;;;;;;;;;;;;1.42;100.00;96318.78;1030263;28;20028;-77
2022/01/20 01:10:25;;;;;;;;;;;;;;;1.40;100.00;96313.00;1029070;28;19918;-74
2022/01/20 01:10:55;;;;;;;;;;;;;;;1.40;100.00;96315.59;1018547;28;19958;-75
2022/01/20 01:11:26;;;;;;;;;;;;;;;1.40;100.00;96305.25;1023319;28;19918;-74
2022/01/20 01:12:03;;;;;;;;;;;;;;;1.40;100.00;96307.84;1030228;28;19914;-77
2022/01/20 01:12:43;;;;;;;;;;;;;;;1.41;100.00;96312.03;1030280;28;20352;-77
2022/01/20 01:13:15;;;;;;;;;;;;;;;1.42;100.00;96314.41;1036566;28;20020;-75
2022/01/20 01:13:46;;;;;;;;;;;;;;;1.42;100.00;96313.63;1032878;28;19917;-73
2022/01/20 01:14:18;;;;;;;;;;;;;;;1.42;100.00;96306.66;1023919;28;20315;-74
2022/01/20 01:14:51;;;;;;;;;;;;;;;1.41;100.00;96312.84;1022345;29;19919;-74
2022/01/20 01:15:26;;;;;;;;;;;;;;;1.45;100.00;96312.44;1024135;28;20370;-75
2022/01/20 01:15:56;;;;;;;;;;;;;;;1.45;100.00;96312.44;1031791;28;19939;-75
2022/01/20 01:16:39;;;;;;;;;;;;;;;1.46;100.00;96316.63;1029199;28;19922;-74
2022/01/20 01:20:15;;;;;;;;;;;;;;;1.46;100.00;96325.19;1029984;28;19924;-77
2022/01/20 01:21:43;;;;;;;;;;;;;;;1.42;100.00;96323.97;1032088;28;19921;-76
2022/01/20 01:22:21;;;;;;;;;;;;;;;1.44;100.00;96328.94;1029507;28;21219;-74
2022/01/20 01:22:51;;;;;;;;;;;;;;;1.45;100.00;96321.00;1026555;28;19925;-77
2022/01/20 01:23:22;;;;;;;;;;;;;;;1.44;100.00;96316.81;1026582;28;19929;-75
2022/01/20 01:23:52;;;;;;;;;;;;;;;1.45;100.00;96327.97;1027648;28;20429;-74
2022/01/20 01:24:22;;;;;;;;;;;;;;;1.44;100.00;96316.81;1026324;28;19921;-75
2022/01/20 01:24:54;;;;;;;;;;;;;;;1.44;100.00;96316.81;1030476;28;20838;-75
2022/01/20 01:25:24;;;;;;;;;;;;;;;1.45;100.00;96315.84;1028660;28;19957;-75
2022/01/20 01:25:56;;;;;;;;;;;;;;;1.42;100.00;96318.78;1022037;28;20631;-75
2022/01/20 01:26:28;;;;;;;;;;;;;;;1.43;100.00;96310.03;1023086;28;20412;-75
2022/01/20 01:26:58;;;;;;;;;;;;;;;1.46;100.00;96325.19;1023017;28;19981;-75
2022/01/20 01:27:30;;;;;;;;;;;;;;;1.43;100.00;96322.97;1025589;28;20404;-74
2022/01/20 01:28:00;;;;;;;;;;;;;;;1.41;100.00;96307.66;1026435;28;19921;-74
2022/01/20 01:28:31;;;;;;;;;;;;;;;1.46;100.00;96314.84;1030665;28;19921;-75
2022/01/20 01:29:08;;;;;;;;;;;;;;;1.46;100.00;96317.41;1026006;28;20421;-74
2022/01/20 01:30:31;;;;;;;;;;;;;;;1.46;100.00;96325.19;1027446;28;19961;-77
2022/01/20 01:31:35;;;;;;;;;;;;;;;1.47;100.00;96321.59;1028581;28;20012;-74
2022/01/20 01:32:08;;;;;;;;;;;;;;;1.47;100.00;96316.41;1029395;28;19918;-75
2022/01/20 01:32:53;;;;;;;;;;;;;;;1.46;100.00;96320.00;1029644;28;20402;-73
2022/01/20 01:33:24;;;;;;;;;;;;;;;1.47;100.00;96315.63;1030543;28;19940;-78
2022/01/20 01:34:01;;;;;;;;;;;;;;;1.46;100.00;96312.25;1033327;28;19920;-77
2022/01/20 01:34:35;;;;;;;;;;;;;;;1.46;100.00;96320.00;1034546;28;19927;-76
2022/01/20 01:35:08;;;;;;;;;;;;;;;1.43;100.00;96320.38;1029038;28;19918;-76
2022/01/20 01:35:41;;;;;;;;;;;;;;;1.42;100.00;96316.22;1028684;28;19918;-77
2022/01/20 01:36:12;;;;;;;;;;;;;;;1.44;100.00;96316.00;1030458;28;19917;-76
2022/01/20 01:38:38;;;;;;;;;;;;;;;1.41;100.00;96324.97;1030993;28;20544;-75
2022/01/20 01:39:09;;;;;;;;;;;;;;;1.40;100.00;96324.13;1026773;28;19920;-76
2022/01/20 01:39:39;;;;;;;;;;;;;;;1.40;100.00;96315.59;1027843;28;20374;-76
2022/01/20 01:40:10;;;;;;;;;;;;;;;1.41;100.00;96322.38;1026282;28;19914;-76
2022/01/20 01:40:42;;;;;;;;;;;;;;;1.39;100.00;96314.00;1027483;28;19914;-75
2022/01/20 01:41:14;;;;;;;;;;;;;;;1.39;100.00;96314.78;1032268;28;20008;-76
2022/01/20 01:41:45;;;;;;;;;;;;;;;1.39;100.00;96319.97;1026623;28;19970;-77
2022/01/20 01:42:22;;;;;;;;;;;;;;;1.41;100.00;96322.38;1022519;29;19914;-75
2022/01/20 01:42:53;;;;;;;;;;;;;;;1.37;100.00;96323.72;1023343;28;19914;-76
2022/01/20 01:43:26;;;;;;;;;;;;;;;1.37;100.00;96321.94;1027862;28;19918;-76
2022/01/20 01:43:57;;;;;;;;;;;;;;;1.37;100.00;96321.94;1032210;28;19917;-75
2022/01/20 01:44:30;;;;;;;;;;;;;;;1.36;100.00;96314.38;1038549;28;19963;-76
2022/01/20 01:45:07;;;;;;;;;;;;;;;1.38;100.00;96312.41;1034741;28;19968;-75
2022/01/20 01:45:39;;;;;;;;;;;;;;;1.37;100.00;96303.84;1033484;28;19909;-76
2022/01/20 01:46:11;;;;;;;;;;;;;;;1.36;100.00;96315.19;1029451;28;19913;-75
2022/01/20 01:46:43;;;;;;;;;;;;;;;1.35;100.00;96310.22;1030538;28;20024;-77
2022/01/20 01:47:14;;;;;;;;;;;;;;;1.36;100.00;96311.78;1031117;28;19921;-77
2022/01/20 01:47:44;;;;;;;;;;;;;;;1.35;100.00;96320.56;1030740;28;19976;-75
2022/01/20 01:48:14;;;;;;;;;;;;;;;1.34;100.00;96321.50;1025972;28;19918;-75
2022/01/20 01:48:45;;;;;;;;;;;;;;;1.32;100.00;96313.16;1026744;28;19933;-76
2022/01/20 01:49:17;;;;;;;;;;;;;;;1.33;100.00;96315.56;1026466;28;19922;-75
2022/01/20 01:49:47;;;;;;;;;;;;;;;1.31;100.00;96316.75;1026497;28;19918;-77
2022/01/20 01:50:17;;;;;;;;;;;;;;;1.32;100.00;96332.06;1030552;28;20343;-73
2022/01/20 01:50:47;;;;;;;;;;;;;;;1.32;100.00;96318.34;1030398;28;20077;-75
2022/01/20 01:51:18;;;;;;;;;;;;;;;1.31;100.00;96322.72;1030073;28;19918;-74
2022/01/20 01:51:48;;;;;;;;;;;;;;;1.31;100.00;96316.75;1034336;28;19925;-74
2022/01/20 01:52:18;;;;;;;;;;;;;;;1.30;100.00;96326.25;1038492;28;20308;-75
2022/01/20 01:52:49;;;;;;;;;;;;;;;1.33;100.00;96304.41;1037703;28;19921;-73
2022/01/20 01:53:19;;;;;;;;;;;;;;;1.30;100.00;96323.69;1034506;28;19927;-75
2022/01/20 01:53:49;;;;;;;;;;;;;;;1.29;100.00;96318.72;1027151;28;20368;-72
2022/01/20 01:54:20;;;;;;;;;;;;;;;1.31;100.00;96321.91;1034725;28;20009;-75
2022/01/20 01:54:50;;;;;;;;;;;;;;;1.29;100.00;96324.69;1033680;28;19921;-74
2022/01/20 01:55:20;;;;;;;;;;;;;;;1.30;100.00;96328.06;1038631;28;20397;-75
2022/01/20 01:55:51;;;;;;;;;;;;;;;1.30;100.00;96320.31;1043549;28;20011;-73
2022/01/20 01:56:21;;;;;;;;;;;;;;;1.29;100.00;96313.53;1034070;28;19948;-76
2022/01/20 01:56:51;;;;;;;;;;;;;;;1.29;100.00;96318.72;1034912;28;20361;-75
2022/01/20 01:57:25;;;;;;;;;;;;;;;1.26;100.00;96324.25;1035152;28;19916;-75
2022/01/20 01:57:55;;;;;;;;;;;;;;;1.28;100.00;96324.88;1031202;28;19940;-75
2022/01/20 01:58:25;;;;;;;;;;;;;;;1.25;100.00;96328.63;1031048;28;19957;-76
2022/01/20 01:58:55;;;;;;;;;;;;;;;1.25;100.00;96328.63;1031745;28;19922;-77
2022/01/20 01:59:26;;;;;;;;;;;;;;;1.25;100.00;96327.84;1031200;28;19917;-74
2022/01/20 01:59:56;;;;;;;;;;;;;;;1.25;100.00;96322.66;1023035;28;19918;-76
2022/01/20 02:00:27;;;;;;;;;;;;;;;1.26;100.00;96324.25;1027936;28;19961;-75
2022/01/20 02:00:57;;;;;;;;;;;;;;;1.25;100.00;96325.25;1027416;28;20354;-75
2022/01/20 02:01:31;;;;;;;;;;;;;;;1.25;100.00;96322.66;1030922;28;19918;-76
2022/01/20 02:02:02;;;;;;;;;;;;;;;1.24;100.00;96328.81;1027926;28;19918;-75
2022/01/20 02:02:32;;;;;;;;;;;;;;;1.27;100.00;96325.84;1031926;28;19913;-75
2022/01/20 02:03:02;;;;;;;;;;;;;;;1.25;100.00;96327.84;1034926;28;19917;-73
2022/01/20 02:03:42;;;;;;;;;;;;;;;1.25;100.00;96330.44;1031042;28;19962;-74
2022/01/20 02:04:17;;;;;;;;;;;;;;;1.25;100.00;96327.84;1031350;28;19917;-75
2022/01/20 02:04:48;;;;;;;;;;;;;;;1.20;100.00;96323.22;1031183;28;20001;-76
2022/01/20 02:05:20;;;;;;;;;;;;;;;1.22;100.00;96333.38;1033355;28;19921;-75
2022/01/20 02:06:16;;;;;;;;;;;;;;;1.22;100.00;96328.22;1033595;28;20055;-73
2022/01/20 02:08:01;;;;;;;;;;;;;;;1.18;100.00;96331.19;1039380;28;19921;-75
2022/01/20 02:08:34;;;;;;;;;;;;;;;1.20;100.00;96325.00;1035776;28;19913;-75
2022/01/20 02:19:04;;;;;;;;;;;;;;;1.14;100.00;96319.63;1037917;28;20628;-75
2022/01/20 02:19:34;;;;;;;;;;;;;;;1.13;100.00;96328.34;1035986;28;19960;-74
2022/01/20 02:20:13;;;;;;;;;;;;;;;1.03;100.00;96309.00;1035806;28;19909;-74
2022/01/20 02:20:43;;;;;;;;;;;;;;;1.12;100.00;96319.00;1028725;28;19914;-75
2022/01/20 02:21:13;;;;;;;;;;;;;;;1.14;100.00;96323.97;1035934;28;20318;-75
2022/01/20 02:21:47;;;;;;;;;;;;;;;1.13;100.00;96324.97;1036098;28;19945;-75
2022/01/20 02:22:17;;;;;;;;;;;;;;;1.13;100.00;96327.56;1032815;28;19909;-74
2022/01/20 02:22:48;;;;;;;;;;;;;;;1.10;100.00;96320.97;1030754;28;19914;-73
2022/01/20 02:23:18;;;;;;;;;;;;;;;1.10;100.00;96327.91;1028016;28;20384;-75
2022/01/20 02:23:48;;;;;;;;;;;;;;;1.09;100.00;96324.53;1027957;28;20368;-75
2022/01/20 02:24:19;;;;;;;;;;;;;;;1.08;100.00;96312.63;1036101;28;20410;-74
2022/01/20 02:24:49;;;;;;;;;;;;;;;1.09;100.00;96323.75;1040233;28;19905;-75
2022/01/20 02:25:20;;;;;;;;;;;;;;;1.10;100.00;96322.75;1036129;28;20380;-74
2022/01/20 02:25:51;;;;;;;;;;;;;;;1.09;100.00;96324.53;1031251;28;19953;-74
2022/01/20 02:26:21;;;;;;;;;;;;;;;1.08;100.00;96322.97;1032115;28;19914;-74
2022/01/20 02:26:52;;;;;;;;;;;;;;;1.07;100.00;96325.72;1036123;28;19916;-75
2022/01/20 02:27:22;;;;;;;;;;;;;;;1.09;100.00;96318.59;1032003;28;20430;-74
2022/01/20 02:27:52;;;;;;;;;;;;;;;1.09;100.00;96316.00;1035856;28;19917;-74
2022/01/20 02:28:23;;;;;;;;;;;;;;;1.08;100.00;96315.19;1036141;28;19906;-75
2022/01/20 02:28:53;;;;;;;;;;;;;;;1.07;100.00;96320.53;1036065;28;20517;-74
2022/01/20 02:29:23;;;;;;;;;;;;;;;1.04;100.00;96319.16;1033710;28;20005;-74
2022/01/20 02:29:54;;;;;;;;;;;;;;;1.07;100.00;96320.53;1031901;28;19945;-74
2022/01/20 02:30:25;;;;;;;;;;;;;;;1.05;100.00;96323.34;1027924;28;19918;-74
2022/01/20 02:30:55;;;;;;;;;;;;;;;1.08;100.00;96322.16;1029299;28;19926;-75
2022/01/20 02:31:25;;;;;;;;;;;;;;;1.05;100.00;96322.53;1023860;29;19925;-74
2022/01/20 02:31:56;;;;;;;;;;;;;;;1.05;100.00;96320.75;1023973;29;19914;-74
2022/01/20 02:32:29;;;;;;;;;;;;;;;1.06;100.00;96321.53;1027539;28;20020;-73
2022/01/20 02:33:01;;;;;;;;;;;;;;;1.05;100.00;96322.53;1027432;28;19914;-74
2022/01/20 02:33:31;;;;;;;;;;;;;;;1.06;100.00;96316.38;1028405;28;20300;-75
2022/01/20 02:34:02;;;;;;;;;;;;;;;1.04;100.00;96321.75;1021126;28;19922;-74
2022/01/20 02:34:32;;;;;;;;;;;;;;;1.03;100.00;96316.75;1028033;28;19918;-74
2022/01/20 02:35:07;;;;;;;;;;;;;;;1.01;100.00;96322.13;1028126;28;19922;-75
2022/01/20 02:35:41;;;;;;;;;;;;;;;1.01;100.00;96322.13;1029191;28;19929;-75
2022/01/20 02:36:15;;;;;;;;;;;;;;;0.98;100.00;96317.31;1031787;28;19918;-76
2022/01/20 02:36:47;;;;;;;;;;;;;;;1.00;100.00;96325.66;1028012;28;20024;-74
2022/01/20 02:37:17;;;;;;;;;;;;;;;0.98;100.00;96322.50;1028055;28;19961;-76
2022/01/20 02:37:51;;;;;;;;;;;;;;;0.97;100.00;96320.88;1029318;28;20331;-76
2022/01/20 02:39:00;;;;;;;;;;;;;;;0.96;100.00;96308.94;1031877;28;20008;-75
2022/01/20 02:44:56;;;;;;;;;;;;;;;0.89;100.00;96308.09;1031767;28;19952;-74
2022/01/20 02:45:26;;;;;;;;;;;;;;;0.87;100.00;96307.47;1026902;28;19918;-75
2022/01/20 02:45:57;;;;;;;;;;;;;;;0.84;100.00;96308.69;1028111;28;19917;-75
2022/01/20 02:46:27;;;;;;;;;;;;;;;0.84;100.00;96305.25;1028114;28;20269;-75
2022/01/20 02:46:57;;;;;;;;;;;;;;;0.85;100.00;96304.31;1028337;28;20391;-76
2022/01/20 02:47:28;;;;;;;;;;;;;;;0.83;100.00;96299.31;1036116;28;19964;-75
2022/01/20 02:47:59;;;;;;;;;;;;;;;0.85;100.00;96301.72;1028617;28;20367;-75
2022/01/20 02:48:29;;;;;;;;;;;;;;;0.84;100.00;96300.09;1027983;28;19918;-75
2022/01/20 02:48:59;;;;;;;;;;;;;;;0.82;100.00;96302.09;1032067;28;19967;-75
2022/01/20 02:49:30;;;;;;;;;;;;;;;0.81;100.00;96290.97;1033321;28;19910;-75
2022/01/20 02:50:00;;;;;;;;;;;;;;;0.80;100.00;96294.50;1040196;28;20495;-75
2022/01/20 02:50:30;;;;;;;;;;;;;;;0.81;100.00;96290.16;1036043;28;19916;-74
2022/01/20 02:51:00;;;;;;;;;;;;;;;0.82;100.00;96296.91;1031096;28;19952;-74
2022/01/20 02:51:31;;;;;;;;;;;;;;;0.81;100.00;96287.59;1023916;28;19918;-73
2022/01/20 02:52:01;;;;;;;;;;;;;;;0.82;100.00;96289.19;1031990;28;19922;-76
2022/01/20 02:52:31;;;;;;;;;;;;;;;0.83;100.00;96293.34;1031676;28;19996;-74
2022/01/20 02:53:02;;;;;;;;;;;;;;;0.80;100.00;96296.31;1027145;28;19914;-74
2022/01/20 02:53:32;;;;;;;;;;;;;;;0.80;100.00;96293.72;1020061;29;19907;-74
2022/01/20 02:54:03;;;;;;;;;;;;;;;0.80;100.00;96293.72;1028133;28;19989;-75
2022/01/20 02:54:33;;;;;;;;;;;;;;;0.79;100.00;96286.97;1032115;28;19913;-76
2022/01/20 02:55:04;;;;;;;;;;;;;;;0.80;100.00;96289.34;1028028;28;19910;-76
2022/01/20 02:55:34;;;;;;;;;;;;;;;0.79;100.00;96287.75;1032036;28;19910;-75
2022/01/20 02:56:05;;;;;;;;;;;;;;;0.78;100.00;96282.78;1028101;28;19918;-74
2022/01/20 02:56:35;;;;;;;;;;;;;;;0.79;100.00;96286.97;1038353;28;19960;-74
2022/01/20 02:57:05;;;;;;;;;;;;;;;0.76;100.00;96297.66;1036060;28;19957;-75
2022/01/20 02:57:35;;;;;;;;;;;;;;;0.75;100.00;96280.59;1036068;28;20009;-74
2022/01/20 02:58:06;;;;;;;;;;;;;;;0.78;100.00;96283.59;1034861;28;19913;-74
2022/01/20 02:58:36;;;;;;;;;;;;;;;0.75;100.00;96283.16;1024095;28;20720;-75
2022/01/20 02:59:07;;;;;;;;;;;;;;;0.77;100.00;96288.94;1023241;28;19993;-75
2022/01/20 02:59:38;;;;;;;;;;;;;;;0.76;100.00;96288.13;1026802;28;20077;-74
2022/01/20 03:00:09;;;;;;;;;;;;;;;0.75;100.00;96289.13;1027188;28;19910;-75
2022/01/20 03:00:39;;;;;;;;;;;;;;;0.75;100.00;96288.34;1030536;28;19914;-75
2022/01/20 03:01:09;;;;;;;;;;;;;;;0.75;100.00;96291.72;1031075;28;19949;-74
2022/01/20 03:01:40;;;;;;;;;;;;;;;0.74;100.00;96289.28;1030445;28;19910;-74
2022/01/20 03:02:10;;;;;;;;;;;;;;;0.73;100.00;96295.47;1030959;28;19910;-75
2022/01/20 03:02:42;;;;;;;;;;;;;;;0.74;100.00;96289.28;1026988;28;19977;-74
2022/01/20 03:03:13;;;;;;;;;;;;;;;0.70;100.00;96294.03;1030463;28;19941;-75
2022/01/20 03:03:43;;;;;;;;;;;;;;;0.70;100.00;96287.13;1031275;28;19969;-75
2022/01/20 03:04:13;;;;;;;;;;;;;;;0.72;100.00;96288.69;1039407;28;19909;-75
2022/01/20 03:04:44;;;;;;;;;;;;;;;0.69;100.00;96293.25;1039270;28;19960;-73
2022/01/20 03:05:14;;;;;;;;;;;;;;;0.69;100.00;96298.41;1038735;28;19961;-73
2022/01/20 03:05:44;;;;;;;;;;;;;;;0.70;100.00;96300.03;1034935;28;20841;-75
2022/01/20 03:06:15;;;;;;;;;;;;;;;0.70;100.00;96294.03;1031174;28;19981;-75
2022/01/20 03:06:45;;;;;;;;;;;;;;;0.70;100.00;96297.44;1031254;28;19914;-75
2022/01/20 03:07:15;;;;;;;;;;;;;;;0.70;100.00;96292.28;1035231;28;19914;-75
2022/01/20 03:07:46;;;;;;;;;;;;;;;0.70;100.00;96294.84;1038807;28;19914;-71
2022/01/20 03:08:16;;;;;;;;;;;;;;;0.69;100.00;96295.81;1039130;28;19918;-75
2022/01/20 03:08:46;;;;;;;;;;;;;;;0.69;100.00;96300.19;1039018;28;19913;-75
2022/01/20 03:09:17;;;;;;;;;;;;;;;0.70;100.00;96299.19;1034662;28;19979;-74
2022/01/20 03:09:47;;;;;;;;;;;;;;;0.69;100.00;96293.25;1030963;28;20447;-74
2022/01/20 03:10:17;;;;;;;;;;;;;;;0.69;100.00;96293.25;1026676;28;19918;-73
2022/01/20 03:10:47;;;;;;;;;;;;;;;0.69;100.00;96282.91;1026141;28;19922;-73
2022/01/20 03:11:18;;;;;;;;;;;;;;;0.66;100.00;96300.56;1027010;28;19914;-75
2022/01/20 03:11:48;;;;;;;;;;;;;;;0.65;100.00;96294.59;1026427;28;19918;-74
2022/01/20 03:12:19;;;;;;;;;;;;;;;0.65;100.00;96292.03;1022967;29;20010;-74
2022/01/20 03:12:49;;;;;;;;;;;;;;;0.65;100.00;96293.81;1022359;28;19918;-74
2022/01/20 03:13:19;;;;;;;;;;;;;;;0.66;100.00;96296.19;1027325;28;19922;-75
2022/01/20 03:13:49;;;;;;;;;;;;;;;0.64;100.00;96292.22;1034651;28;19917;-75
2022/01/20 03:14:20;;;;;;;;;;;;;;;0.64;100.00;96295.59;1034992;28;20489;-74
2022/01/20 03:14:50;;;;;;;;;;;;;;;0.64;100.00;96298.19;1030946;28;20315;-75
2022/01/20 03:15:20;;;;;;;;;;;;;;;0.63;100.00;96293.97;1034479;28;19964;-74
2022/01/20 03:15:51;;;;;;;;;;;;;;;0.63;100.00;96293.19;1038970;28;20020;-76
2022/01/20 03:16:21;;;;;;;;;;;;;;;0.61;100.00;96295.16;1035107;28;19936;-70
2022/01/20 03:16:51;;;;;;;;;;;;;;;0.60;100.00;96302.09;1033006;28;19922;-74
2022/01/20 03:17:22;;;;;;;;;;;;;;;0.60;100.00;96291.75;1031214;28;19921;-76
2022/01/20 03:17:52;;;;;;;;;;;;;;;0.61;100.00;96292.59;1034874;28;19997;-74
2022/01/20 03:18:22;;;;;;;;;;;;;;;0.60;100.00;96298.72;1039029;28;19921;-73
2022/01/20 03:18:53;;;;;;;;;;;;;;;0.58;100.00;96306.66;1034805;28;19921;-76
2022/01/20 03:19:23;;;;;;;;;;;;;;;0.56;100.00;96306.03;1034921;28;19952;-75
2022/01/20 03:19:53;;;;;;;;;;;;;;;0.56;100.00;96306.03;1030985;28;20622;-75
2022/01/20 03:20:23;;;;;;;;;;;;;;;0.54;100.00;96310.59;1026284;28;19929;-75
2022/01/20 03:20:54;;;;;;;;;;;;;;;0.52;100.00;96304.81;1032653;28;19926;-75
2022/01/20 03:21:24;;;;;;;;;;;;;;;0.53;100.00;96301.25;1031041;28;20295;-76
2022/01/20 03:21:54;;;;;;;;;;;;;;;0.52;100.00;96306.59;1029468;28;19928;-74
2022/01/20 03:22:25;;;;;;;;;;;;;;;0.51;100.00;96305.81;1030707;28;20357;-74
2022/01/20 03:22:55;;;;;;;;;;;;;;;0.51;100.00;96307.59;1034214;28;19929;-74
2022/01/20 03:23:25;;;;;;;;;;;;;;;0.50;100.00;96308.56;1034574;28;20004;-75
2022/01/20 03:23:56;;;;;;;;;;;;;;;0.49;100.00;96312.94;1034592;28;19992;-74
2022/01/20 03:24:26;;;;;;;;;;;;;;;0.47;100.00;96307.97;1039121;28;19917;-75
2022/01/20 03:24:58;;;;;;;;;;;;;;;0.45;100.00;96309.91;1034984;28;19921;-74
2022/01/20 03:25:28;;;;;;;;;;;;;;;0.44;100.00;96325.59;1036710;28;19917;-74
2022/01/20 03:25:58;;;;;;;;;;;;;;;0.44;100.00;96310.13;1030877;28;20310;-73
2022/01/20 03:26:29;;;;;;;;;;;;;;;0.40;100.00;96319.19;1030910;28;20679;-74
2022/01/20 03:26:59;;;;;;;;;;;;;;;0.37;100.00;96316.97;1030960;28;19922;-74
2022/01/20 03:27:29;;;;;;;;;;;;;;;0.33;100.00;96321.72;1030984;28;19922;-75
2022/01/20 03:28:00;;;;;;;;;;;;;;;0.32;100.00;96314.97;1035028;28;20529;-74
2022/01/20 03:28:30;;;;;;;;;;;;;;;0.34;100.00;96314.78;1027067;28;19918;-75
2022/01/20 03:29:00;;;;;;;;;;;;;;;0.31;100.00;96315.16;1029931;28;19928;-75
2022/01/20 03:29:30;;;;;;;;;;;;;;;0.27;100.00;96322.47;1034579;28;19913;-75
2022/01/20 03:30:01;;;;;;;;;;;;;;;0.25;100.00;96316.69;1026942;28;19914;-74
2022/01/20 03:30:31;;;;;;;;;;;;;;;0.23;100.00;96309.13;1031933;28;20023;-75
2022/01/20 03:31:01;;;;;;;;;;;;;;;0.23;100.00;96316.06;1026975;28;19914;-75
2022/01/20 03:31:32;;;;;;;;;;;;;;;0.17;100.00;96309.84;1026873;28;19945;-75
2022/01/20 03:32:02;;;;;;;;;;;;;;;0.18;100.00;96318.41;1030700;28;20355;-75